createdAt,value
2023-05-24T00:01:02.945Z,21.60
2023-05-24T00:03:35.275Z,21.61
2023-05-24T00:06:02.325Z,21.60
2023-05-24T00:08:29.250Z,21.59
2023-05-24T00:10:56.201Z,21.16
2023-05-24T00:13:23.112Z,21.33
2023-05-24T00:15:50.067Z,21.38
2023-05-24T00:18:19.608Z,21.35
2023-05-24T00:20:46.881Z,21.32
2023-05-24T00:23:14.148Z,21.24
2023-05-24T00:25:41.033Z,21.14
2023-05-24T00:28:07.927Z,20.86
2023-05-24T00:30:34.800Z,20.85
2023-05-24T00:33:01.743Z,20.92
2023-05-24T00:35:28.643Z,21.12
2023-05-24T00:37:55.568Z,21.27
2023-05-24T00:40:22.455Z,20.97
2023-05-24T00:42:49.523Z,21.33
2023-05-24T00:45:16.458Z,21.16
2023-05-24T00:47:44.110Z,21.42
2023-05-24T00:50:17.406Z,21.52
2023-05-24T00:52:45.273Z,21.44
2023-05-24T00:55:12.823Z,21.38
2023-05-24T00:57:39.908Z,21.55
2023-05-24T01:00:08.299Z,21.29
2023-05-24T01:02:35.619Z,21.32
2023-05-24T01:05:02.996Z,21.49
2023-05-24T01:07:42.040Z,21.17
2023-05-24T01:10:32.536Z,21.23
2023-05-24T01:13:23.825Z,21.37
2023-05-24T01:16:16.062Z,21.40
2023-05-24T01:18:52.877Z,21.37
2023-05-24T01:22:02.038Z,21.52
2023-05-24T01:25:13.356Z,21.49
2023-05-24T01:27:40.894Z,21.59
2023-05-24T01:30:08.401Z,21.49
2023-05-24T01:32:35.646Z,21.39
2023-05-24T01:35:02.518Z,21.53
2023-05-24T01:37:29.382Z,21.32
2023-05-24T01:39:56.537Z,21.10
2023-05-24T01:42:35.190Z,21.07
2023-05-24T01:45:08.073Z,21.25
2023-05-24T01:48:18.975Z,21.18
2023-05-24T01:50:52.840Z,21.07
2023-05-24T01:53:23.395Z,21.23
2023-05-24T01:55:53.647Z,21.06
2023-05-24T01:58:23.234Z,21.22
2023-05-24T02:00:50.792Z,21.13
2023-05-24T02:03:17.959Z,20.89
2023-05-24T02:05:46.402Z,20.84
2023-05-24T02:08:13.584Z,20.79
2023-05-24T02:10:41.512Z,20.78
2023-05-24T02:13:09.198Z,20.76
2023-05-24T02:15:36.693Z,20.67
2023-05-24T02:18:04.381Z,20.52
2023-05-24T02:20:31.768Z,20.48
2023-05-24T02:22:58.812Z,20.53
2023-05-24T02:25:25.837Z,20.43
2023-05-24T02:27:52.836Z,20.49
2023-05-24T02:30:19.857Z,20.22
2023-05-24T02:32:47.001Z,20.34
2023-05-24T02:35:13.922Z,20.37
2023-05-24T02:37:40.968Z,19.86
2023-05-24T02:40:08.432Z,20.10
2023-05-24T02:42:35.542Z,19.91
2023-05-24T02:45:02.841Z,19.79
2023-05-24T02:47:29.906Z,19.26
2023-05-24T02:49:57.197Z,20.03
2023-05-24T02:52:24.140Z,19.94
2023-05-24T02:54:51.035Z,19.98
2023-05-24T02:57:18.528Z,19.86
2023-05-24T02:59:45.459Z,19.92
2023-05-24T03:02:15.166Z,19.80
2023-05-24T03:04:41.931Z,19.72
2023-05-24T03:07:08.829Z,20.01
2023-05-24T03:09:35.908Z,19.87
2023-05-24T03:12:02.830Z,19.56
2023-05-24T03:14:29.706Z,19.74
2023-05-24T03:16:56.661Z,19.70
2023-05-24T03:19:23.633Z,19.38
2023-05-24T03:21:50.639Z,19.55
2023-05-24T03:24:17.521Z,18.67
2023-05-24T03:26:44.530Z,19.07
2023-05-24T03:29:11.574Z,19.16
2023-05-24T03:31:38.471Z,19.08
2023-05-24T03:34:05.370Z,19.03
2023-05-24T03:36:33.015Z,18.95
2023-05-24T03:38:59.957Z,19.03
2023-05-24T03:41:27.795Z,18.98
2023-05-24T03:43:54.786Z,19.11
2023-05-24T03:46:21.718Z,19.17
2023-05-24T03:48:49.753Z,19.00
2023-05-24T03:51:17.014Z,19.12
2023-05-24T03:53:44.271Z,19.21
2023-05-24T03:56:11.260Z,19.06
2023-05-24T03:58:38.888Z,19.22
2023-05-24T04:01:05.916Z,18.96
2023-05-24T04:03:34.523Z,18.77
2023-05-24T04:06:01.712Z,18.87
2023-05-24T04:08:28.571Z,18.42
2023-05-24T04:10:55.905Z,19.04
2023-05-24T04:13:22.815Z,18.81
2023-05-24T04:15:49.854Z,18.43
2023-05-24T04:18:16.875Z,18.92
2023-05-24T04:20:44.060Z,19.03
2023-05-24T04:23:11.153Z,19.01
2023-05-24T04:25:38.059Z,18.88
2023-05-24T04:28:05.057Z,19.01
2023-05-24T04:30:32.442Z,19.11
2023-05-24T04:32:59.450Z,19.03
2023-05-24T04:35:26.447Z,19.07
2023-05-24T04:37:53.460Z,19.19
2023-05-24T04:40:23.339Z,19.17
2023-05-24T04:42:50.973Z,19.12
2023-05-24T04:45:17.796Z,19.29
2023-05-24T04:47:44.792Z,19.17
2023-05-24T04:50:11.713Z,19.04
2023-05-24T04:52:38.780Z,18.90
2023-05-24T04:55:06.223Z,19.26
2023-05-24T04:57:33.072Z,19.52
2023-05-24T05:00:00.095Z,19.50
2023-05-24T05:02:27.365Z,19.44
2023-05-24T05:04:54.281Z,18.99
2023-05-24T05:07:21.747Z,18.94
2023-05-24T05:09:48.711Z,19.27
2023-05-24T05:12:15.714Z,19.37
2023-05-24T05:14:42.718Z,19.26
2023-05-24T05:17:09.647Z,19.82
2023-05-24T05:19:36.619Z,19.85
2023-05-24T05:22:03.680Z,20.27
2023-05-24T05:24:30.709Z,20.68
2023-05-24T05:26:57.678Z,20.50
2023-05-24T05:29:24.752Z,20.57
2023-05-24T05:31:51.758Z,19.80
2023-05-24T05:34:19.751Z,19.94
2023-05-24T05:36:46.893Z,19.74
2023-05-24T05:39:14.302Z,20.06
2023-05-24T05:41:46.388Z,19.87
2023-05-24T05:44:14.126Z,19.65
2023-05-24T05:46:44.021Z,19.72
2023-05-24T05:49:11.183Z,19.67
2023-05-24T05:51:38.994Z,20.25
2023-05-24T05:54:06.914Z,20.08
2023-05-24T05:56:33.883Z,20.60
2023-05-24T05:59:00.936Z,20.19
2023-05-24T06:01:27.798Z,19.81
2023-05-24T06:03:54.813Z,19.52
2023-05-24T06:06:21.777Z,19.71
2023-05-24T06:08:48.702Z,19.85
2023-05-24T06:11:15.657Z,19.61
2023-05-24T06:13:42.606Z,19.71
2023-05-24T06:16:10.104Z,20.07
2023-05-24T06:18:37.273Z,20.03
2023-05-24T06:21:04.467Z,20.59
2023-05-24T06:23:32.417Z,20.95
2023-05-24T06:25:59.328Z,21.19
2023-05-24T06:28:26.327Z,21.60
2023-05-24T06:30:53.290Z,21.39
2023-05-24T06:33:20.303Z,21.54
2023-05-24T06:35:47.245Z,22.13
2023-05-24T06:38:14.178Z,22.07
2023-05-24T06:40:41.970Z,21.91
2023-05-24T06:43:09.029Z,21.53
2023-05-24T06:45:35.994Z,21.71
2023-05-24T06:48:03.254Z,21.71
2023-05-24T06:50:30.389Z,21.54
2023-05-24T06:52:57.283Z,21.20
2023-05-24T06:57:50.970Z,21.57
2023-05-24T07:00:18.974Z,21.15
2023-05-24T07:02:45.892Z,21.78
2023-05-24T07:05:12.877Z,21.51
2023-05-24T07:07:40.952Z,21.48
2023-05-24T07:10:09.231Z,21.20
2023-05-24T07:12:36.218Z,21.37
2023-05-24T07:15:07.303Z,20.87
2023-05-24T07:17:34.312Z,21.31
2023-05-24T07:20:02.166Z,20.97
2023-05-24T07:22:30.274Z,20.79
2023-05-24T07:24:57.266Z,21.35
2023-05-24T07:27:24.232Z,21.40
2023-05-24T07:29:51.271Z,20.56
2023-05-24T07:32:18.547Z,20.65
2023-05-24T07:34:45.520Z,20.62
2023-05-24T07:37:12.425Z,20.74
2023-05-24T07:39:39.608Z,21.50
2023-05-24T07:42:07.581Z,21.38
2023-05-24T07:44:34.497Z,21.47
2023-05-24T07:47:02.746Z,21.86
2023-05-24T07:49:29.708Z,22.29
2023-05-24T07:51:58.581Z,22.67
2023-05-24T07:54:25.929Z,21.92
2023-05-24T07:56:53.043Z,22.21
2023-05-24T07:59:19.958Z,22.40
2023-05-24T08:01:48.039Z,22.58
2023-05-24T08:04:16.323Z,22.04
2023-05-24T08:06:43.334Z,22.17
2023-05-24T08:09:10.587Z,22.31
2023-05-24T08:11:37.645Z,23.07
2023-05-24T08:14:04.505Z,23.41
2023-05-24T08:16:32.155Z,23.57
2023-05-24T08:18:59.087Z,23.17
2023-05-24T08:21:26.437Z,23.81
2023-05-24T08:23:53.362Z,24.41
2023-05-24T08:26:21.205Z,24.51
2023-05-24T08:28:48.411Z,25.05
2023-05-24T08:31:15.465Z,23.95
2023-05-24T08:33:43.235Z,24.07
2023-05-24T08:36:10.498Z,25.24
2023-05-24T08:38:37.414Z,25.29
2023-05-24T08:41:07.446Z,25.95
2023-05-24T08:43:35.601Z,26.71
2023-05-24T08:46:04.108Z,27.54
2023-05-24T08:48:31.524Z,27.15
2023-05-24T08:50:59.617Z,27.24
2023-05-24T08:53:27.662Z,25.69
2023-05-24T08:55:56.351Z,25.71
2023-05-24T08:58:23.596Z,26.84
2023-05-24T09:00:50.674Z,27.21
2023-05-24T09:03:18.874Z,26.33
2023-05-24T09:05:46.381Z,25.64
2023-05-24T09:08:18.248Z,26.25
2023-05-24T09:13:20.005Z,25.50
2023-05-24T09:15:47.239Z,26.16
2023-05-24T09:18:14.202Z,26.72
2023-05-24T09:20:41.573Z,26.98
2023-05-24T09:23:08.942Z,26.76
2023-05-24T09:25:36.124Z,26.11
2023-05-24T09:28:08.681Z,26.75
2023-05-24T09:30:36.764Z,26.52
2023-05-24T09:33:05.782Z,27.64
2023-05-24T09:35:33.041Z,28.00
2023-05-24T09:38:00.703Z,28.15
2023-05-24T09:40:28.867Z,28.40
2023-05-24T09:43:10.161Z,28.21
2023-05-24T09:45:46.902Z,27.31
2023-05-24T09:48:15.592Z,26.92
2023-05-24T09:50:45.933Z,27.92
2023-05-24T09:53:13.080Z,28.34
2023-05-24T09:55:40.063Z,28.70
2023-05-24T09:58:11.786Z,28.81
2023-05-24T10:00:41.633Z,28.51
2023-05-24T10:03:15.386Z,28.99
2023-05-24T10:05:45.517Z,28.81
2023-05-24T10:08:14.618Z,28.51
2023-05-24T10:10:42.690Z,28.62
2023-05-24T10:13:10.718Z,29.30
2023-05-24T10:15:38.450Z,29.09
2023-05-24T10:18:10.671Z,29.60
2023-05-24T10:20:42.113Z,29.57
2023-05-24T10:23:10.945Z,29.87
2023-05-24T10:25:42.236Z,29.65
2023-05-24T10:28:12.953Z,29.50
2023-05-24T10:31:02.257Z,28.95
2023-05-24T10:33:31.568Z,28.90
2023-05-24T10:35:58.973Z,29.18
2023-05-24T10:38:26.053Z,29.07
2023-05-24T10:40:53.387Z,29.15
2023-05-24T10:43:22.337Z,27.53
2023-05-24T10:45:50.906Z,27.62
2023-05-24T10:48:17.916Z,27.98
2023-05-24T10:50:45.296Z,28.43
2023-05-24T10:53:16.144Z,28.19
2023-05-24T10:55:52.783Z,28.23
2023-05-24T10:58:20.640Z,27.59
2023-05-24T11:00:49.303Z,27.16
2023-05-24T11:03:23.932Z,27.90
2023-05-24T11:05:53.603Z,29.19
2023-05-24T11:08:32.148Z,29.85
2023-05-24T11:13:40.931Z,29.49
2023-05-24T11:16:08.257Z,29.67
2023-05-24T11:18:38.817Z,29.63
2023-05-24T11:21:06.821Z,30.00
2023-05-24T11:23:35.981Z,29.64
2023-05-24T11:26:04.387Z,30.38
2023-05-24T11:28:32.873Z,30.45
2023-05-24T11:31:09.720Z,29.80
2023-05-24T11:33:41.818Z,29.05
2023-05-24T11:36:08.828Z,30.39
2023-05-24T11:38:36.891Z,30.28
2023-05-24T11:41:03.974Z,30.52
2023-05-24T11:43:31.752Z,29.07
2023-05-24T11:45:58.708Z,28.08
2023-05-24T11:48:26.296Z,28.74
2023-05-24T11:50:53.432Z,28.84
2023-05-24T11:53:25.098Z,29.73
2023-05-24T11:55:54.626Z,29.59
2023-05-24T11:58:29.770Z,29.94
2023-05-24T12:00:56.654Z,28.78
2023-05-24T12:03:23.774Z,27.87
2023-05-24T12:05:51.530Z,28.85
2023-05-24T12:08:18.694Z,28.60
2023-05-24T12:10:45.903Z,29.10
2023-05-24T12:13:24.415Z,29.83
2023-05-24T12:15:56.610Z,28.89
2023-05-24T12:18:26.671Z,30.01
2023-05-24T12:20:54.004Z,30.29
2023-05-24T12:23:24.401Z,29.79
2023-05-24T12:25:51.597Z,29.73
2023-05-24T12:28:25.093Z,29.65
2023-05-24T12:30:52.933Z,29.19
2023-05-24T12:33:21.265Z,29.91
2023-05-24T12:35:50.099Z,30.65
2023-05-24T12:38:25.584Z,30.67
2023-05-24T12:41:07.944Z,31.16
2023-05-24T12:43:39.750Z,31.37
2023-05-24T12:46:07.159Z,30.31
2023-05-24T12:48:34.258Z,30.34
2023-05-24T12:51:02.476Z,30.62
2023-05-24T12:53:29.631Z,30.26
2023-05-24T12:55:56.701Z,30.49
2023-05-24T12:58:23.935Z,29.15
2023-05-24T13:00:52.148Z,30.16
2023-05-24T13:03:19.093Z,29.89
2023-05-24T13:05:47.488Z,28.76
2023-05-24T13:08:14.829Z,27.96
2023-05-24T13:10:41.817Z,27.34
2023-05-24T13:13:09.058Z,27.84
2023-05-24T13:15:36.449Z,28.02
2023-05-24T13:18:03.379Z,28.02
2023-05-24T13:20:30.370Z,27.67
2023-05-24T13:22:57.277Z,27.74
2023-05-24T13:25:24.196Z,27.55
2023-05-24T13:27:51.202Z,27.28
2023-05-24T13:30:18.210Z,27.13
2023-05-24T13:32:45.273Z,26.22
2023-05-24T13:35:12.193Z,27.72
2023-05-24T13:37:39.250Z,27.45
2023-05-24T13:40:07.008Z,28.08
2023-05-24T13:42:33.972Z,27.52
2023-05-24T13:45:01.270Z,28.61
2023-05-24T13:47:39.233Z,28.99
2023-05-24T13:50:07.611Z,29.19
2023-05-24T13:52:35.104Z,29.79
2023-05-24T13:55:05.098Z,29.74
2023-05-24T13:57:49.842Z,28.36
2023-05-24T14:00:19.203Z,29.07
2023-05-24T14:02:46.267Z,29.54
2023-05-24T14:05:26.692Z,28.88
2023-05-24T14:07:55.184Z,28.94
2023-05-24T14:10:22.207Z,28.50
2023-05-24T14:12:59.350Z,28.17
2023-05-24T14:15:31.136Z,28.91
2023-05-24T14:17:58.949Z,27.01
2023-05-24T14:20:25.928Z,27.97
2023-05-24T14:22:52.877Z,28.57
2023-05-24T14:25:20.008Z,28.71
2023-05-24T14:27:47.097Z,27.97
2023-05-24T14:30:14.834Z,28.56
2023-05-24T14:32:41.734Z,28.21
2023-05-24T14:35:08.867Z,28.51
2023-05-24T14:37:35.868Z,28.23
2023-05-24T14:40:02.943Z,27.61
2023-05-24T14:42:29.907Z,27.95
2023-05-24T14:44:56.848Z,28.02
2023-05-24T14:47:23.750Z,28.23
2023-05-24T14:49:51.007Z,28.04
2023-05-24T14:52:17.897Z,28.06
2023-05-24T14:54:44.735Z,28.25
2023-05-24T14:57:12.347Z,28.16
2023-05-24T14:59:39.219Z,27.71
2023-05-24T15:02:06.688Z,27.38
2023-05-24T15:04:33.834Z,27.40
2023-05-24T15:07:00.939Z,26.50
2023-05-24T15:09:27.861Z,25.96
2023-05-24T15:11:54.720Z,25.49
2023-05-24T15:14:22.089Z,25.33
2023-05-24T15:16:49.792Z,26.29
2023-05-24T15:19:16.751Z,27.17
2023-05-24T15:21:43.622Z,26.22
2023-05-24T15:24:10.544Z,26.35
2023-05-24T15:26:37.710Z,26.58
2023-05-24T15:29:04.887Z,26.01
2023-05-24T15:31:31.819Z,25.75
2023-05-24T15:33:58.744Z,26.27
2023-05-24T15:36:25.719Z,26.77
2023-05-24T15:38:52.573Z,24.93
2023-05-24T15:41:19.475Z,25.04
2023-05-24T15:43:46.610Z,25.10
2023-05-24T15:46:13.548Z,25.48
2023-05-24T15:48:40.504Z,25.54
2023-05-24T15:53:37.820Z,25.15
2023-05-24T15:56:04.958Z,25.61
2023-05-24T15:58:31.819Z,25.91
2023-05-24T16:00:58.689Z,26.21
2023-05-24T16:03:25.677Z,26.13
2023-05-24T16:05:52.650Z,25.94
2023-05-24T16:08:19.891Z,24.66
2023-05-24T16:10:46.877Z,24.90
2023-05-24T16:13:14.123Z,24.77
2023-05-24T16:15:42.694Z,24.81
2023-05-24T16:18:09.791Z,24.79
2023-05-24T16:20:37.004Z,25.07
2023-05-24T16:23:04.059Z,24.60
2023-05-24T16:25:30.975Z,25.23
2023-05-24T16:27:57.939Z,25.12
2023-05-24T16:30:24.848Z,24.72
2023-05-24T16:32:51.801Z,24.76
2023-05-24T16:35:18.824Z,24.36
2023-05-24T16:37:45.751Z,25.02
2023-05-24T16:40:12.874Z,24.42
2023-05-24T16:42:39.780Z,24.86
2023-05-24T16:45:07.038Z,25.04
2023-05-24T16:47:34.014Z,25.20
2023-05-24T16:50:00.943Z,25.00
2023-05-24T16:52:27.879Z,25.29
2023-05-24T16:54:54.745Z,25.07
2023-05-24T16:57:21.603Z,25.48
2023-05-24T16:59:50.636Z,25.21
2023-05-24T17:02:17.722Z,25.08
2023-05-24T17:04:44.568Z,25.07
2023-05-24T17:07:11.476Z,25.13
2023-05-24T17:09:38.377Z,25.21
2023-05-24T17:12:05.566Z,24.79
2023-05-24T17:14:32.515Z,25.20
2023-05-24T17:16:59.390Z,24.83
2023-05-24T17:19:26.393Z,24.94
2023-05-24T17:21:53.287Z,24.31
2023-05-24T17:24:21.884Z,24.48
2023-05-24T17:26:48.723Z,24.78
2023-05-24T17:29:15.836Z,23.71
2023-05-24T17:31:42.698Z,24.61
2023-05-24T17:34:09.613Z,24.39
2023-05-24T17:36:37.756Z,23.95
2023-05-24T17:39:07.428Z,23.98
2023-05-24T17:41:34.432Z,24.21
2023-05-24T17:44:01.315Z,24.09
2023-05-24T17:46:28.308Z,23.95
2023-05-24T17:48:55.270Z,23.97
2023-05-24T17:51:24.676Z,23.51
2023-05-24T17:53:51.835Z,23.91
2023-05-24T17:56:18.804Z,23.37
2023-05-24T17:58:47.566Z,23.88
2023-05-24T18:01:15.481Z,23.74
2023-05-24T18:03:42.917Z,23.10
2023-05-24T18:06:10.098Z,23.48
2023-05-24T18:08:42.599Z,23.70
2023-05-24T18:11:11.453Z,23.91
2023-05-24T18:13:39.739Z,23.37
2023-05-24T18:16:07.435Z,23.37
2023-05-24T18:18:34.780Z,23.71
2023-05-24T18:21:01.756Z,23.32
2023-05-24T18:23:28.729Z,23.60
2023-05-24T18:26:01.406Z,23.42
2023-05-24T18:28:30.205Z,23.67
2023-05-24T18:30:57.219Z,23.81
2023-05-24T18:33:24.524Z,23.68
2023-05-24T18:35:51.646Z,23.54
2023-05-24T18:38:18.693Z,23.73
2023-05-24T18:40:45.955Z,23.55
2023-05-24T18:43:12.866Z,23.66
2023-05-24T18:45:39.772Z,23.55
2023-05-24T18:48:07.056Z,23.53
2023-05-24T18:50:34.080Z,23.61
2023-05-24T18:53:01.509Z,23.64
2023-05-24T18:55:28.664Z,23.56
2023-05-24T18:57:55.698Z,23.44
2023-05-24T19:00:25.473Z,23.63
2023-05-24T19:02:52.566Z,23.49
2023-05-24T19:05:20.259Z,23.61
2023-05-24T19:07:47.262Z,23.64
2023-05-24T19:10:14.250Z,23.70
2023-05-24T19:12:41.242Z,23.57
2023-05-24T19:15:08.739Z,23.57
2023-05-24T19:17:35.961Z,23.52
2023-05-24T19:20:03.376Z,23.28
2023-05-24T19:22:30.469Z,23.44
2023-05-24T19:24:57.391Z,23.43
2023-05-24T19:27:24.761Z,23.43
2023-05-24T19:29:51.826Z,23.35
2023-05-24T19:32:20.433Z,23.31
2023-05-24T19:34:47.579Z,23.32
2023-05-24T19:37:15.957Z,23.26
2023-05-24T19:39:42.923Z,23.02
2023-05-24T19:42:12.010Z,23.01
2023-05-24T19:44:38.955Z,22.98
2023-05-24T19:47:06.018Z,22.86
2023-05-24T19:49:32.897Z,22.79
2023-05-24T19:51:59.784Z,22.62
2023-05-24T19:54:26.681Z,22.41
2023-05-24T19:56:55.350Z,22.47
2023-05-24T19:59:22.280Z,22.12
2023-05-24T20:01:49.375Z,22.29
2023-05-24T20:04:16.362Z,21.98
2023-05-24T20:06:43.280Z,22.06
2023-05-24T20:09:10.339Z,22.02
2023-05-24T20:11:37.356Z,21.85
2023-05-24T20:14:04.632Z,21.73
2023-05-24T20:16:31.710Z,21.73
2023-05-24T20:18:58.598Z,21.51
2023-05-24T20:21:25.535Z,21.28
2023-05-24T20:23:57.813Z,21.47
2023-05-24T20:26:25.977Z,21.52
2023-05-24T20:28:52.914Z,21.51
2023-05-24T20:31:19.971Z,21.29
2023-05-24T20:33:47.083Z,21.44
2023-05-24T20:36:15.287Z,21.15
2023-05-24T20:38:42.463Z,21.07
2023-05-24T20:41:09.514Z,21.10
2023-05-24T20:43:36.526Z,21.20
2023-05-24T20:46:03.562Z,21.17
2023-05-24T20:48:30.519Z,21.10
2023-05-24T20:50:57.629Z,21.03
2023-05-24T20:53:24.683Z,20.97
2023-05-24T20:55:51.679Z,20.84
2023-05-24T20:58:18.645Z,20.69
2023-05-24T21:00:46.061Z,20.75
2023-05-24T21:03:13.184Z,20.75
2023-05-24T21:05:40.548Z,20.86
2023-05-24T21:08:07.583Z,20.70
2023-05-24T21:10:34.555Z,20.62
2023-05-24T21:13:01.479Z,20.28
2023-05-24T21:15:28.347Z,19.98
2023-05-24T21:17:55.323Z,20.29
2023-05-24T21:20:22.516Z,19.77
2023-05-24T21:22:49.588Z,19.03
2023-05-24T21:25:16.590Z,19.44
2023-05-24T21:27:43.531Z,19.59
2023-05-24T21:30:10.830Z,19.38
2023-05-24T21:32:37.806Z,19.17
2023-05-24T21:35:05.107Z,19.53
2023-05-24T21:37:31.970Z,19.60
2023-05-24T21:39:58.860Z,19.58
2023-05-24T21:42:25.743Z,19.61
2023-05-24T21:44:52.628Z,19.84
2023-05-24T21:47:19.490Z,19.86
2023-05-24T21:49:46.362Z,19.24
2023-05-24T21:52:13.300Z,19.79
2023-05-24T21:54:40.156Z,19.63
2023-05-24T21:57:07.470Z,19.57
2023-05-24T21:59:34.347Z,19.56
2023-05-24T22:02:01.378Z,19.52
2023-05-24T22:04:28.342Z,19.53
2023-05-24T22:06:55.260Z,19.63
2023-05-24T22:09:22.349Z,19.53
2023-05-24T22:11:49.242Z,19.52
2023-05-24T22:14:16.436Z,19.42
2023-05-24T22:16:43.405Z,19.38
2023-05-24T22:19:14.479Z,19.37
2023-05-24T22:21:43.078Z,19.43
2023-05-24T22:24:10.568Z,19.33
2023-05-24T22:26:37.644Z,19.23
2023-05-24T22:29:04.885Z,19.33
2023-05-24T22:31:33.741Z,19.19
2023-05-24T22:34:03.720Z,19.22
2023-05-24T22:36:34.745Z,19.25
2023-05-24T22:39:02.370Z,19.26
2023-05-24T22:41:29.568Z,19.38
2023-05-24T22:43:57.402Z,19.13
2023-05-24T22:46:24.882Z,19.22
2023-05-24T22:48:52.693Z,19.00
2023-05-24T22:51:20.354Z,19.11
2023-05-24T22:53:48.757Z,19.24
2023-05-24T22:56:18.088Z,18.84
2023-05-24T22:58:44.956Z,18.77
2023-05-24T23:01:12.037Z,18.79
2023-05-24T23:03:38.966Z,18.86
2023-05-24T23:06:06.130Z,18.34
2023-05-24T23:08:33.733Z,18.37
2023-05-24T23:11:01.019Z,18.48
2023-05-24T23:13:28.273Z,18.61
2023-05-24T23:15:58.720Z,18.68
2023-05-24T23:18:26.654Z,18.74
2023-05-24T23:20:56.795Z,18.35
2023-05-24T23:23:25.057Z,18.28
2023-05-24T23:25:52.015Z,18.07
2023-05-24T23:28:19.315Z,17.87
2023-05-24T23:30:46.302Z,17.98
2023-05-24T23:33:13.172Z,17.78
2023-05-24T23:35:40.158Z,18.06
2023-05-24T23:38:07.138Z,17.97
2023-05-24T23:40:34.691Z,17.78
2023-05-24T23:43:01.549Z,17.63
2023-05-24T23:45:28.553Z,17.84
2023-05-24T23:47:55.654Z,17.51
2023-05-24T23:50:22.828Z,17.33
2023-05-24T23:52:50.171Z,17.17
2023-05-24T23:55:18.452Z,17.39
2023-05-24T23:57:46.261Z,16.84
